createdAt,value
2017-12-21T00:01:40.830Z,21.50
2017-12-21T00:04:06.906Z,18.13
2017-12-21T00:06:33.826Z,23.43
2017-12-21T00:08:59.826Z,21.47
2017-12-21T00:11:27.847Z,25.77
2017-12-21T00:13:53.852Z,22.77
2017-12-21T00:16:19.836Z,23.50
2017-12-21T00:18:45.738Z,24.00
2017-12-21T00:21:11.714Z,23.27
2017-12-21T00:23:38.165Z,26.00
2017-12-21T00:26:04.017Z,18.83
2017-12-21T00:28:29.990Z,23.87
2017-12-21T00:30:55.981Z,25.43
2017-12-21T00:33:21.979Z,21.50
2017-12-21T00:35:47.923Z,27.30
2017-12-21T00:38:13.883Z,25.63
2017-12-21T00:40:40.710Z,22.80
2017-12-21T00:43:06.678Z,21.63
2017-12-21T00:45:32.659Z,26.10
2017-12-21T00:47:58.629Z,20.47
2017-12-21T00:50:24.574Z,21.40
2017-12-21T00:52:50.534Z,21.67
2017-12-21T00:55:16.448Z,22.33
2017-12-21T00:57:43.395Z,18.50
2017-12-21T01:00:10.405Z,20.10
2017-12-21T01:02:37.380Z,21.53
2017-12-21T01:05:04.182Z,21.47
2017-12-21T01:07:30.879Z,28.17
2017-12-21T01:09:57.745Z,18.00
2017-12-21T01:12:23.708Z,21.70
2017-12-21T01:14:49.670Z,20.97
2017-12-21T01:17:15.589Z,20.37
2017-12-21T01:19:41.520Z,19.70
2017-12-21T01:22:07.469Z,20.73
2017-12-21T01:24:34.545Z,22.10
2017-12-21T01:27:00.482Z,23.63
2017-12-21T01:29:26.458Z,20.60
2017-12-21T01:31:52.387Z,23.30
2017-12-21T01:34:18.321Z,21.40
2017-12-21T01:36:44.259Z,19.90
2017-12-21T01:39:10.166Z,15.43
2017-12-21T01:41:36.159Z,18.90
2017-12-21T01:44:02.093Z,17.30
2017-12-21T01:46:28.824Z,18.13
2017-12-21T01:48:56.385Z,17.37
2017-12-21T01:51:22.314Z,17.97
2017-12-21T01:53:49.688Z,19.67
2017-12-21T01:56:15.914Z,15.07
2017-12-21T01:58:41.860Z,16.90
2017-12-21T02:01:08.293Z,15.47
2017-12-21T02:03:34.183Z,16.40
2017-12-21T02:06:00.718Z,17.73
2017-12-21T02:08:27.592Z,19.43
2017-12-21T02:10:53.590Z,18.27
2017-12-21T02:13:19.782Z,16.83
2017-12-21T02:15:46.421Z,16.13
2017-12-21T02:18:13.095Z,19.30
2017-12-21T02:20:39.078Z,17.80
2017-12-21T02:23:05.013Z,16.80
2017-12-21T02:25:30.963Z,18.93
2017-12-21T02:27:57.806Z,18.27
2017-12-21T02:30:23.755Z,23.80
2017-12-21T02:32:50.614Z,19.60
2017-12-21T02:35:16.560Z,15.17
2017-12-21T02:37:43.286Z,16.90
2017-12-21T02:40:09.194Z,21.23
2017-12-21T02:42:35.156Z,18.10
2017-12-21T02:45:01.070Z,17.80
2017-12-21T02:47:27.022Z,20.73
2017-12-21T02:49:53.648Z,21.83
2017-12-21T02:52:19.590Z,21.50
2017-12-21T02:54:45.503Z,18.37
2017-12-21T02:57:11.414Z,24.37
2017-12-21T02:59:37.358Z,20.97
2017-12-21T03:02:03.287Z,19.60
2017-12-21T03:04:29.829Z,23.60
2017-12-21T03:06:55.735Z,23.50
2017-12-21T03:09:21.646Z,19.10
2017-12-21T03:11:47.539Z,20.50
2017-12-21T03:14:13.486Z,16.33
2017-12-21T03:16:39.466Z,18.57
2017-12-21T03:19:05.386Z,18.57
2017-12-21T03:21:31.296Z,20.30
2017-12-21T03:23:57.961Z,25.30
2017-12-21T03:26:23.897Z,21.70
2017-12-21T03:28:49.859Z,25.53
2017-12-21T03:31:15.820Z,23.63
2017-12-21T03:33:41.803Z,21.50
2017-12-21T03:36:07.706Z,21.13
2017-12-21T03:38:33.626Z,25.40
2017-12-21T03:40:59.544Z,22.60
2017-12-21T03:43:26.475Z,24.47
2017-12-21T03:45:52.371Z,18.77
2017-12-21T03:48:18.289Z,20.77
2017-12-21T03:50:44.218Z,23.30
2017-12-21T03:53:10.122Z,22.07
2017-12-21T03:55:36.212Z,22.27
2017-12-21T03:58:02.905Z,21.33
2017-12-21T04:00:28.910Z,27.80
2017-12-21T04:02:54.842Z,23.10
2017-12-21T04:05:21.490Z,20.53
2017-12-21T04:07:47.486Z,21.63
2017-12-21T04:10:13.414Z,24.73
2017-12-21T04:12:39.327Z,21.80
2017-12-21T04:15:05.359Z,21.60
2017-12-21T04:17:32.043Z,22.80
2017-12-21T04:19:58.019Z,19.90
2017-12-21T04:22:23.938Z,19.63
2017-12-21T04:24:49.859Z,19.00
2017-12-21T04:27:15.895Z,18.50
2017-12-21T04:29:41.876Z,17.90
2017-12-21T04:32:08.657Z,20.57
2017-12-21T04:34:34.648Z,20.13
2017-12-21T04:37:00.623Z,20.53
2017-12-21T04:39:26.547Z,20.13
2017-12-21T04:41:52.484Z,19.87
2017-12-21T04:44:18.509Z,21.80
2017-12-21T04:46:44.434Z,22.13
2017-12-21T04:49:11.126Z,23.57
2017-12-21T04:51:38.101Z,21.70
2017-12-21T04:54:04.197Z,19.73
2017-12-21T04:56:31.066Z,23.07
2017-12-21T04:58:57.071Z,22.10
2017-12-21T05:01:23.466Z,20.10
2017-12-21T05:03:49.442Z,21.27
2017-12-21T05:06:15.434Z,24.40
2017-12-21T05:08:41.382Z,18.90
2017-12-21T05:11:07.368Z,24.30
2017-12-21T05:13:33.349Z,21.87
2017-12-21T05:16:00.071Z,26.90
2017-12-21T05:18:25.999Z,27.50
2017-12-21T05:20:51.986Z,23.87
2017-12-21T05:23:17.952Z,24.80
2017-12-21T05:25:45.609Z,28.33
2017-12-21T05:28:11.509Z,26.60
2017-12-21T05:30:38.480Z,28.80
2017-12-21T05:33:05.132Z,26.10
2017-12-21T05:35:31.206Z,27.27
2017-12-21T05:37:57.163Z,26.30
2017-12-21T05:40:23.166Z,24.00
2017-12-21T05:42:49.117Z,27.10
2017-12-21T05:45:15.926Z,27.60
2017-12-21T05:47:41.889Z,29.03
2017-12-21T05:50:08.979Z,24.70
2017-12-21T05:52:34.959Z,26.97
2017-12-21T05:55:01.655Z,25.47
2017-12-21T05:57:28.589Z,27.43
2017-12-21T05:59:54.497Z,26.17
2017-12-21T06:02:20.454Z,24.87
2017-12-21T06:04:47.164Z,27.43
2017-12-21T06:07:13.095Z,25.40
2017-12-21T06:09:39.019Z,28.80
2017-12-21T06:12:04.987Z,24.47
2017-12-21T06:14:31.064Z,24.63
2017-12-21T06:16:57.039Z,24.20
2017-12-21T06:19:23.029Z,23.50
2017-12-21T06:21:49.714Z,30.13
2017-12-21T06:24:15.657Z,27.47
2017-12-21T06:26:41.591Z,28.27
2017-12-21T06:29:07.509Z,26.40
2017-12-21T06:31:33.466Z,26.47
2017-12-21T06:33:59.363Z,28.07
2017-12-21T06:36:25.295Z,29.27
2017-12-21T06:38:51.284Z,28.00
2017-12-21T06:41:17.357Z,30.67
2017-12-21T06:43:44.145Z,27.77
2017-12-21T06:46:10.184Z,32.83
2017-12-21T06:48:36.924Z,28.80
2017-12-21T06:51:02.884Z,26.00
2017-12-21T06:53:28.795Z,28.60
2017-12-21T06:55:54.730Z,23.90
2017-12-21T06:58:20.695Z,31.03
2017-12-21T07:00:46.670Z,26.90
2017-12-21T07:03:12.648Z,27.10
2017-12-21T07:05:38.675Z,25.73
2017-12-21T07:08:06.275Z,28.40
2017-12-21T07:10:32.259Z,27.87
2017-12-21T07:12:59.003Z,27.20
2017-12-21T07:15:24.957Z,31.20
2017-12-21T07:17:50.919Z,26.90
2017-12-21T07:20:17.799Z,36.17
2017-12-21T07:22:43.950Z,28.07
2017-12-21T07:25:09.923Z,31.50
2017-12-21T07:27:35.931Z,29.20
2017-12-21T07:30:01.919Z,31.90
2017-12-21T07:32:27.877Z,29.80
2017-12-21T07:34:53.851Z,31.70
2017-12-21T07:37:19.814Z,31.57
2017-12-21T07:39:45.798Z,31.20
2017-12-21T07:42:12.728Z,31.33
2017-12-21T07:44:38.811Z,28.57
2017-12-21T07:47:04.956Z,29.87
2017-12-21T07:49:31.642Z,29.73
2017-12-21T07:51:57.600Z,28.50
2017-12-21T07:54:23.569Z,32.30
2017-12-21T07:56:49.556Z,33.80
2017-12-21T07:59:15.470Z,27.33
2017-12-21T08:01:41.426Z,28.13
2017-12-21T08:04:07.395Z,35.07
2017-12-21T08:06:33.327Z,37.50
2017-12-21T08:08:59.242Z,37.53
2017-12-21T08:11:25.201Z,28.30
2017-12-21T08:13:51.846Z,30.70
2017-12-21T08:16:17.739Z,31.17
2017-12-21T08:18:44.387Z,33.57
2017-12-21T08:21:10.365Z,29.20
2017-12-21T08:23:36.426Z,32.53
2017-12-21T08:26:02.323Z,34.57
2017-12-21T08:28:28.315Z,38.77
2017-12-21T08:30:54.258Z,30.20
2017-12-21T08:33:20.209Z,34.60
2017-12-21T08:35:46.870Z,29.47
2017-12-21T08:38:12.798Z,36.30
2017-12-21T08:40:38.754Z,35.67
2017-12-21T08:43:05.586Z,32.50
2017-12-21T08:45:31.746Z,30.90
2017-12-21T08:47:57.668Z,31.73
2017-12-21T08:50:24.364Z,33.43
2017-12-21T08:52:50.358Z,33.27
2017-12-21T08:55:16.289Z,33.23
2017-12-21T08:57:42.269Z,29.10
2017-12-21T09:00:08.205Z,32.40
2017-12-21T09:02:35.202Z,33.60
2017-12-21T09:05:01.144Z,30.53
2017-12-21T09:07:27.074Z,29.20
2017-12-21T09:09:53.082Z,34.37
2017-12-21T09:12:19.061Z,28.00
2017-12-21T09:14:44.984Z,31.50
2017-12-21T09:17:11.542Z,32.53
2017-12-21T09:19:37.643Z,31.73
2017-12-21T09:22:03.605Z,34.70
2017-12-21T09:24:29.715Z,34.03
2017-12-21T09:26:55.670Z,33.13
2017-12-21T09:29:22.423Z,31.70
2017-12-21T09:31:48.360Z,34.13
2017-12-21T09:34:14.965Z,32.50
2017-12-21T09:36:40.917Z,33.13
2017-12-21T09:39:06.846Z,34.90
2017-12-21T09:41:32.791Z,32.93
2017-12-21T09:43:58.799Z,38.97
2017-12-21T09:46:24.813Z,35.27
2017-12-21T09:48:51.678Z,35.03
2017-12-21T09:51:17.689Z,33.90
2017-12-21T09:53:43.794Z,36.63
2017-12-21T09:56:09.719Z,33.97
2017-12-21T09:58:35.695Z,31.20
2017-12-21T10:01:01.714Z,30.33
2017-12-21T10:03:27.698Z,28.23
2017-12-21T10:05:53.606Z,30.10
2017-12-21T10:08:19.699Z,30.37
2017-12-21T10:10:46.485Z,31.03
2017-12-21T10:13:12.454Z,34.50
2017-12-21T10:15:39.408Z,29.93
2017-12-21T10:18:06.075Z,32.10
2017-12-21T10:20:31.976Z,30.53
2017-12-21T10:22:57.978Z,33.50
2017-12-21T10:25:24.548Z,35.43
2017-12-21T10:27:50.507Z,26.33
2017-12-21T10:30:16.452Z,36.93
2017-12-21T10:32:42.360Z,30.80
2017-12-21T10:35:08.301Z,31.83
2017-12-21T10:37:35.262Z,29.70
2017-12-21T10:40:01.293Z,31.80
2017-12-21T10:42:27.210Z,29.47
2017-12-21T10:44:53.128Z,31.73
2017-12-21T10:47:20.075Z,29.70
2017-12-21T10:49:46.014Z,30.23
2017-12-21T10:52:12.092Z,29.23
2017-12-21T10:54:38.830Z,26.37
2017-12-21T10:57:04.789Z,29.57
2017-12-21T10:59:30.765Z,30.17
2017-12-21T11:01:56.704Z,27.27
2017-12-21T11:04:23.392Z,27.17
2017-12-21T11:06:50.215Z,27.03
2017-12-21T11:09:16.160Z,27.03
2017-12-21T11:11:42.653Z,25.20
2017-12-21T11:14:08.676Z,26.63
2017-12-21T11:16:34.751Z,23.90
2017-12-21T11:19:00.708Z,38.67
2017-12-21T11:21:27.416Z,25.27
2017-12-21T11:23:53.366Z,27.07
2017-12-21T11:26:19.557Z,24.40
2017-12-21T11:28:45.484Z,24.40
2017-12-21T11:31:11.490Z,23.73
2017-12-21T11:33:38.510Z,25.13
2017-12-21T11:36:04.487Z,20.83
2017-12-21T11:38:30.565Z,27.43
2017-12-21T11:40:56.662Z,24.60
2017-12-21T11:43:22.687Z,24.90
2017-12-21T11:45:48.627Z,24.50
2017-12-21T11:48:14.569Z,25.20
2017-12-21T11:50:40.539Z,24.23
2017-12-21T11:53:07.855Z,24.57
2017-12-21T11:55:33.894Z,23.27
2017-12-21T11:57:59.978Z,25.00
2017-12-21T12:00:26.953Z,26.10
2017-12-21T12:02:53.683Z,24.73
2017-12-21T12:05:19.631Z,23.93
2017-12-21T12:07:45.721Z,22.43
2017-12-21T12:10:11.751Z,24.30
2017-12-21T12:12:37.711Z,29.00
2017-12-21T12:15:04.466Z,23.10
2017-12-21T12:17:30.428Z,27.10
2017-12-21T12:19:56.337Z,22.23
2017-12-21T12:22:23.016Z,22.97
2017-12-21T12:24:49.570Z,22.83
2017-12-21T12:27:16.275Z,22.00
2017-12-21T12:29:43.951Z,23.27
2017-12-21T12:32:09.898Z,20.27
2017-12-21T12:34:35.993Z,22.43
2017-12-21T12:37:01.895Z,23.93
2017-12-21T12:39:29.206Z,20.67
2017-12-21T12:41:56.150Z,22.00
2017-12-21T12:44:22.087Z,23.80
2017-12-21T12:46:48.027Z,19.87
2017-12-21T12:49:14.004Z,23.30
2017-12-21T12:51:42.342Z,25.67
2017-12-21T12:54:08.300Z,35.37
2017-12-21T12:56:34.285Z,21.40
2017-12-21T12:59:00.243Z,24.07
2017-12-21T13:01:26.351Z,24.03
2017-12-21T13:03:53.919Z,28.70
2017-12-21T13:06:19.906Z,25.77
2017-12-21T13:08:47.070Z,23.37
2017-12-21T13:11:12.996Z,25.53
2017-12-21T13:13:38.983Z,26.80
2017-12-21T13:16:05.171Z,27.23
2017-12-21T13:18:31.875Z,27.30
2017-12-21T13:20:58.815Z,27.43
2017-12-21T13:23:24.757Z,23.57
2017-12-21T13:25:52.375Z,21.40
2017-12-21T13:28:18.299Z,22.13
2017-12-21T13:30:44.219Z,24.57
2017-12-21T13:33:10.165Z,21.70
2017-12-21T13:35:36.174Z,26.90
2017-12-21T13:38:02.156Z,23.53
2017-12-21T13:40:28.118Z,21.50
2017-12-21T13:42:54.070Z,22.73
2017-12-21T13:45:20.067Z,21.97
2017-12-21T13:47:46.062Z,21.90
2017-12-21T13:50:12.920Z,22.93
2017-12-21T13:52:38.939Z,23.83
2017-12-21T13:55:05.029Z,21.87
2017-12-21T13:57:31.080Z,19.47
2017-12-21T13:59:57.028Z,22.90
2017-12-21T14:02:22.955Z,20.93
2017-12-21T14:04:49.131Z,21.10
2017-12-21T14:07:15.128Z,17.70
2017-12-21T14:09:41.200Z,17.80
2017-12-21T14:12:07.322Z,17.03
2017-12-21T14:14:33.919Z,18.87
2017-12-21T14:16:59.896Z,18.23
2017-12-21T14:19:26.206Z,18.80
2017-12-21T14:21:52.307Z,17.90
2017-12-21T14:24:19.989Z,16.20
2017-12-21T14:26:46.086Z,16.70
2017-12-21T14:29:12.111Z,18.30
2017-12-21T14:31:38.055Z,19.47
2017-12-21T14:34:03.998Z,18.07
2017-12-21T14:36:29.995Z,17.50
2017-12-21T14:38:56.000Z,16.03
2017-12-21T14:41:21.932Z,14.03
2017-12-21T14:43:48.966Z,17.50
2017-12-21T14:46:16.059Z,17.43
2017-12-21T14:48:42.190Z,16.83
2017-12-21T14:51:08.231Z,18.50
2017-12-21T14:53:34.217Z,20.87
2017-12-21T14:56:00.960Z,18.27
2017-12-21T15:01:02.087Z,21.30
2017-12-21T15:03:28.070Z,19.43
2017-12-21T15:05:54.760Z,25.17
2017-12-21T15:08:20.732Z,22.30
2017-12-21T15:10:48.152Z,26.10
2017-12-21T15:13:14.110Z,21.13
2017-12-21T15:15:40.062Z,19.33
2017-12-21T15:18:08.873Z,21.23
2017-12-21T15:20:34.837Z,22.97
2017-12-21T15:23:01.541Z,24.37
2017-12-21T15:25:27.850Z,23.07
2017-12-21T15:27:53.964Z,22.43
2017-12-21T15:30:20.001Z,27.17
2017-12-21T15:32:46.038Z,27.73
2017-12-21T15:35:12.967Z,25.83
2017-12-21T15:37:38.945Z,24.67
2017-12-21T15:40:06.212Z,26.20
2017-12-21T15:42:32.178Z,25.87
2017-12-21T15:44:58.176Z,24.57
2017-12-21T15:47:24.193Z,25.50
2017-12-21T15:49:50.142Z,23.10
2017-12-21T15:52:16.089Z,24.43
2017-12-21T15:54:42.035Z,21.63
2017-12-21T15:57:08.579Z,21.90
2017-12-21T15:59:34.467Z,25.17
2017-12-21T16:02:00.449Z,23.10
2017-12-21T16:04:26.420Z,22.70
2017-12-21T16:06:52.861Z,25.70
2017-12-21T16:09:18.835Z,19.03
2017-12-21T16:11:44.780Z,21.37
2017-12-21T16:14:10.766Z,18.80
2017-12-21T16:16:36.687Z,21.37
2017-12-21T16:19:03.529Z,20.10
2017-12-21T16:21:29.569Z,23.83
2017-12-21T16:23:55.496Z,22.43
2017-12-21T16:26:21.426Z,20.23
2017-12-21T16:28:47.431Z,21.73
2017-12-21T16:31:13.458Z,22.77
2017-12-21T16:33:39.451Z,21.67
2017-12-21T16:36:05.435Z,21.30
2017-12-21T16:38:31.391Z,21.50
2017-12-21T16:40:57.786Z,17.90
2017-12-21T16:43:24.600Z,20.30
2017-12-21T16:45:51.356Z,21.20
2017-12-21T16:48:18.194Z,19.37
2017-12-21T16:50:44.117Z,19.77
2017-12-21T16:53:10.044Z,22.77
2017-12-21T16:55:35.962Z,19.27
2017-12-21T16:58:02.641Z,21.93
2017-12-21T17:00:28.589Z,20.67
2017-12-21T17:02:54.558Z,21.97
2017-12-21T17:05:20.518Z,21.03
2017-12-21T17:07:46.454Z,22.90
2017-12-21T17:10:12.393Z,26.17
2017-12-21T17:12:38.539Z,22.13
2017-12-21T17:15:06.186Z,22.13
2017-12-21T17:17:33.927Z,26.43
2017-12-21T17:19:59.867Z,22.33
2017-12-21T17:22:29.538Z,23.07
2017-12-21T17:24:56.479Z,26.20
2017-12-21T17:27:23.117Z,24.20
2017-12-21T17:29:50.315Z,25.97
2017-12-21T17:32:17.859Z,22.30
2017-12-21T17:34:45.864Z,26.90
2017-12-21T17:37:11.849Z,23.03
2017-12-21T17:39:37.770Z,26.13
2017-12-21T17:42:04.325Z,24.60
2017-12-21T17:44:31.822Z,27.57
2017-12-21T17:46:58.642Z,24.50
2017-12-21T17:49:24.644Z,24.73
2017-12-21T17:51:53.124Z,23.90
2017-12-21T17:54:19.831Z,27.80
2017-12-21T17:56:45.811Z,26.30
2017-12-21T17:59:12.373Z,26.90
2017-12-21T18:01:38.415Z,29.33
2017-12-21T18:04:04.447Z,25.60
2017-12-21T18:06:30.490Z,27.60
2017-12-21T18:08:56.857Z,25.93
2017-12-21T18:11:25.153Z,29.67
2017-12-21T18:13:52.150Z,29.27
2017-12-21T18:16:18.205Z,26.20
2017-12-21T18:18:44.261Z,31.07
2017-12-21T18:21:10.218Z,28.70
2017-12-21T18:23:36.357Z,27.83
2017-12-21T18:26:02.331Z,30.00
2017-12-21T18:28:28.370Z,26.87
2017-12-21T18:30:54.403Z,28.90
2017-12-21T18:33:20.449Z,29.40
2017-12-21T18:35:48.118Z,28.30
2017-12-21T18:38:15.034Z,31.63
2017-12-21T18:40:40.984Z,35.00
2017-12-21T18:43:06.961Z,33.50
2017-12-21T18:45:32.927Z,29.20
2017-12-21T18:48:01.724Z,31.00
2017-12-21T18:50:27.737Z,28.43
2017-12-21T18:52:53.793Z,31.90
2017-12-21T18:55:19.863Z,30.27
2017-12-21T18:57:45.971Z,25.53
2017-12-21T19:00:12.202Z,32.57
2017-12-21T19:02:38.801Z,28.90
2017-12-21T19:05:04.856Z,35.23
2017-12-21T19:07:32.563Z,29.03
2017-12-21T19:09:58.634Z,27.47
2017-12-21T19:12:24.589Z,30.83
2017-12-21T19:14:51.544Z,27.83
2017-12-21T19:17:17.473Z,26.10
2017-12-21T19:19:44.001Z,27.30
2017-12-21T19:22:10.599Z,27.20
2017-12-21T19:24:36.552Z,29.17
2017-12-21T19:27:02.811Z,25.43
2017-12-21T19:29:28.755Z,30.57
2017-12-21T19:31:54.684Z,27.40
2017-12-21T19:34:20.663Z,27.33
2017-12-21T19:36:47.374Z,28.93
2017-12-21T19:39:13.381Z,31.10
2017-12-21T19:41:40.542Z,27.70
2017-12-21T19:44:08.874Z,28.10
2017-12-21T19:46:35.620Z,28.17
2017-12-21T19:49:01.839Z,31.37
2017-12-21T19:51:27.775Z,26.33
2017-12-21T19:53:53.704Z,30.00
2017-12-21T19:56:19.918Z,30.47
2017-12-21T19:58:45.825Z,30.73
2017-12-21T20:01:11.747Z,30.60
2017-12-21T20:03:37.652Z,29.43
2017-12-21T20:06:03.635Z,32.10
2017-12-21T20:08:29.567Z,29.23
2017-12-21T20:10:55.478Z,31.37
2017-12-21T20:13:21.414Z,28.53
2017-12-21T20:15:47.366Z,26.57
2017-12-21T20:18:13.653Z,28.13
2017-12-21T20:20:39.611Z,30.37
2017-12-21T20:23:05.571Z,31.00
2017-12-21T20:25:32.274Z,28.23
2017-12-21T20:27:58.244Z,30.23
2017-12-21T20:30:26.622Z,27.00
2017-12-21T20:32:52.527Z,25.83
2017-12-21T20:35:18.467Z,30.67
2017-12-21T20:37:44.721Z,32.43
2017-12-21T20:40:10.835Z,33.37
2017-12-21T20:42:37.329Z,31.50
2017-12-21T20:45:03.278Z,26.57
2017-12-21T20:47:29.416Z,27.07
2017-12-21T20:49:55.395Z,29.40
2017-12-21T20:52:21.390Z,25.80
2017-12-21T20:54:47.351Z,27.90
2017-12-21T20:57:14.103Z,29.33
2017-12-21T20:59:40.174Z,27.63
2017-12-21T21:02:06.186Z,28.53
2017-12-21T21:04:32.150Z,33.23
2017-12-21T21:06:58.818Z,28.60
2017-12-21T21:09:25.180Z,33.00
2017-12-21T21:11:51.634Z,31.87
2017-12-21T21:14:17.608Z,25.40
2017-12-21T21:16:44.536Z,27.33
2017-12-21T21:19:11.227Z,29.43
2017-12-21T21:21:37.127Z,27.93
2017-12-21T21:24:03.083Z,31.07
2017-12-21T21:26:29.035Z,29.23
2017-12-21T21:28:55.122Z,29.97
2017-12-21T21:31:23.290Z,33.40
2017-12-21T21:33:49.290Z,35.83
2017-12-21T21:36:15.246Z,35.60
2017-12-21T21:38:41.251Z,31.80
2017-12-21T21:41:08.409Z,33.97
2017-12-21T21:43:35.244Z,34.07
2017-12-21T21:46:01.209Z,32.40
2017-12-21T21:48:27.200Z,31.50
2017-12-21T21:50:53.160Z,32.23
2017-12-21T21:53:19.097Z,29.73
2017-12-21T21:55:45.820Z,32.50
2017-12-21T21:58:11.815Z,29.10
2017-12-21T22:00:37.784Z,32.20
2017-12-21T22:03:03.715Z,35.80
2017-12-21T22:05:29.687Z,34.13
2017-12-21T22:07:56.994Z,31.60
2017-12-21T22:10:23.294Z,35.60
2017-12-21T22:12:49.488Z,38.87
2017-12-21T22:15:15.723Z,36.67
2017-12-21T22:17:42.563Z,34.20
2017-12-21T22:20:09.384Z,34.33
2017-12-21T22:22:37.912Z,34.40
2017-12-21T22:25:04.909Z,35.13
2017-12-21T22:27:33.262Z,37.80
2017-12-21T22:29:59.211Z,32.00
2017-12-21T22:32:26.147Z,32.77
2017-12-21T22:34:52.105Z,36.10
2017-12-21T22:37:18.050Z,37.23
2017-12-21T22:39:44.990Z,35.00
2017-12-21T22:42:10.907Z,36.00
2017-12-21T22:44:37.284Z,33.37
2017-12-21T22:47:03.288Z,39.63
2017-12-21T22:49:29.231Z,33.47
2017-12-21T22:51:55.219Z,38.53
2017-12-21T22:54:21.159Z,37.60
2017-12-21T22:56:47.059Z,34.80
2017-12-21T22:59:13.003Z,35.77
2017-12-21T23:01:38.926Z,33.40
2017-12-21T23:04:04.998Z,34.10
2017-12-21T23:06:31.753Z,32.40
2017-12-21T23:08:57.720Z,36.47
2017-12-21T23:11:23.704Z,33.77
2017-12-21T23:13:50.440Z,33.50
2017-12-21T23:16:16.501Z,38.27
2017-12-21T23:18:42.537Z,33.57
2017-12-21T23:21:08.550Z,30.70
2017-12-21T23:23:34.531Z,37.03
2017-12-21T23:26:00.448Z,34.10
2017-12-21T23:28:26.396Z,31.40
2017-12-21T23:30:52.396Z,33.37
2017-12-21T23:33:19.243Z,33.53
2017-12-21T23:35:45.203Z,36.70
2017-12-21T23:38:11.797Z,31.43
2017-12-21T23:40:39.885Z,32.30
2017-12-21T23:43:06.752Z,36.67
2017-12-21T23:45:33.752Z,36.87
2017-12-21T23:47:59.771Z,37.17
2017-12-21T23:50:27.261Z,34.90
2017-12-21T23:52:53.853Z,34.77
2017-12-21T23:55:25.127Z,33.50
2017-12-21T23:57:51.088Z,35.97
